Time;durP1;ratioP1;P1;durP2;ratioP2;P2;SDS_P1;SDS_P2;PMS_P1;PMS_P2;Temp;Humidity;BMP_temperature;BMP_pressure;BME280_temperature;BME280_humidity;BME280_pressure;Samples;Min_cycle;Max_cycle;Signal;HPM_P1;HPM_P2
2023/07/01 00:00:46;;;;;;;;;;;18.30;99.90;;;;;;5063590;28;19979;-68
2023/07/01 00:03:13;;;;;;;;;;;18.30;99.90;;;;;;5065873;28;19983;-68
2023/07/01 00:05:40;;;;;;;;;;;18.30;99.90;;;;;;5065529;28;19921;-68
2023/07/01 00:08:07;;;;;;;;;;;18.40;99.90;;;;;;5066527;28;19924;-68
2023/07/01 00:10:34;;;;;;;;;;;18.30;99.90;;;;;;5066310;28;19921;-69
2023/07/01 00:13:01;;;;;;;;;;;18.30;99.90;;;;;;5066170;28;19921;-68
2023/07/01 00:15:28;;;;;;;;;;;18.30;99.90;;;;;;5058125;28;19953;-68
2023/07/01 00:17:55;;;;;;;;;;;18.20;99.90;;;;;;5046109;28;19931;-68
2023/07/01 00:20:21;;;;;;;;;;;18.20;99.90;;;;;;5045924;28;19921;-68
2023/07/01 00:22:48;;;;;;;;;;;18.20;99.90;;;;;;5045023;28;19927;-69
2023/07/01 00:25:15;;;;;;;;;;;18.20;99.90;;;;;;5045436;28;19977;-69
2023/07/01 00:27:43;;;;;;;;;;;18.20;99.90;;;;;;5045623;28;19929;-69
2023/07/01 00:30:10;;;;;;;;;;;18.10;99.90;;;;;;5045975;28;19979;-69
2023/07/01 00:32:36;;;;;;;;;;;18.10;99.90;;;;;;5045789;28;19928;-68
2023/07/01 00:35:03;;;;;;;;;;;18.10;99.90;;;;;;5045657;28;20119;-68
2023/07/01 00:37:30;;;;;;;;;;;18.10;99.90;;;;;;5045354;28;19921;-68
2023/07/01 00:39:57;;;;;;;;;;;18.10;99.90;;;;;;5045816;28;19924;-68
2023/07/01 00:42:23;;;;;;;;;;;18.00;99.90;;;;;;5045767;28;19988;-69
2023/07/01 00:44:51;;;;;;;;;;;18.00;99.90;;;;;;5045212;28;19996;-68
2023/07/01 00:47:18;;;;;;;;;;;18.00;99.90;;;;;;5044677;28;20205;-68
2023/07/01 00:49:45;;;;;;;;;;;18.00;99.90;;;;;;5045433;28;19989;-68
2023/07/01 00:52:12;;;;;;;;;;;18.00;99.90;;;;;;5045515;28;19943;-68
2023/07/01 00:54:39;;;;;;;;;;;18.00;99.90;;;;;;5045058;28;20279;-68
2023/07/01 00:57:06;;;;;;;;;;;18.00;99.90;;;;;;5044376;28;20285;-68
2023/07/01 00:59:33;;;;;;;;;;;17.90;99.90;;;;;;5045350;28;19958;-67
2023/07/01 01:02:07;;;;;;;;;;;17.90;99.90;;;;;;5042718;28;19984;-69
2023/07/01 01:04:36;;;;;;;;;;;17.90;99.90;;;;;;5045343;28;20199;-68
2023/07/01 01:07:04;;;;;;;;;;;17.90;99.90;;;;;;5044203;28;20244;-68
2023/07/01 01:09:34;;;;;;;;;;;17.90;99.90;;;;;;5058606;28;19921;-68
2023/07/01 01:12:00;;;;;;;;;;;17.90;99.90;;;;;;5064990;28;19920;-69
2023/07/01 01:14:29;;;;;;;;;;;17.90;99.90;;;;;;5064853;28;19920;-68
2023/07/01 01:16:57;;;;;;;;;;;17.90;99.90;;;;;;5064199;28;20050;-68
2023/07/01 01:19:28;;;;;;;;;;;17.90;99.90;;;;;;5064967;28;20120;-68
2023/07/01 01:22:03;;;;;;;;;;;17.90;99.90;;;;;;5064577;28;20236;-68
2023/07/01 01:24:31;;;;;;;;;;;17.80;99.90;;;;;;5064948;28;19920;-69
2023/07/01 01:27:00;;;;;;;;;;;17.80;99.90;;;;;;5063603;28;19989;-68
2023/07/01 01:29:28;;;;;;;;;;;17.80;99.90;;;;;;5064611;28;20093;-68
2023/07/01 01:31:55;;;;;;;;;;;17.70;99.90;;;;;;5064491;28;19921;-68
2023/07/01 01:34:21;;;;;;;;;;;17.70;99.90;;;;;;5064494;28;19952;-68
2023/07/01 01:36:50;;;;;;;;;;;17.70;99.90;;;;;;5063780;28;20001;-68
2023/07/01 01:39:21;;;;;;;;;;;17.70;99.90;;;;;;5064430;28;19952;-68
2023/07/01 01:41:53;;;;;;;;;;;17.70;99.90;;;;;;5063861;28;20397;-68
2023/07/01 01:44:25;;;;;;;;;;;17.70;99.90;;;;;;5064297;28;20205;-68
2023/07/01 01:46:53;;;;;;;;;;;17.60;99.90;;;;;;5063361;28;20328;-69
2023/07/01 01:49:20;;;;;;;;;;;17.60;99.90;;;;;;5064446;28;19984;-68
2023/07/01 01:51:47;;;;;;;;;;;17.60;99.90;;;;;;5063983;28;19921;-68
2023/07/01 01:54:14;;;;;;;;;;;17.60;99.90;;;;;;5064375;28;19921;-67
2023/07/01 01:56:42;;;;;;;;;;;17.60;99.90;;;;;;5063143;28;19984;-68
2023/07/01 01:59:09;;;;;;;;;;;17.50;99.90;;;;;;5064222;28;19921;-68
2023/07/01 02:01:36;;;;;;;;;;;17.60;99.90;;;;;;5060913;28;19921;-68
2023/07/01 02:04:04;;;;;;;;;;;17.60;99.90;;;;;;5064328;28;19921;-68
2023/07/01 02:06:31;;;;;;;;;;;17.60;99.90;;;;;;5063329;28;19920;-68
2023/07/01 02:08:57;;;;;;;;;;;17.60;99.90;;;;;;5063956;28;19956;-69
2023/07/01 02:11:24;;;;;;;;;;;17.50;99.90;;;;;;5063760;28;20259;-68
2023/07/01 02:13:51;;;;;;;;;;;17.60;99.90;;;;;;5063981;28;19952;-68
2023/07/01 02:16:17;;;;;;;;;;;17.50;99.90;;;;;;5063176;28;19956;-68
2023/07/01 02:18:44;;;;;;;;;;;17.50;99.90;;;;;;5063681;28;20236;-69
2023/07/01 02:21:12;;;;;;;;;;;17.60;99.90;;;;;;5063531;28;19980;-68
2023/07/01 02:23:39;;;;;;;;;;;17.60;99.90;;;;;;5063781;28;19921;-69
2023/07/01 02:26:06;;;;;;;;;;;17.50;99.90;;;;;;5062866;28;19964;-68
2023/07/01 02:28:33;;;;;;;;;;;17.50;99.90;;;;;;5063641;28;19927;-68
2023/07/01 02:31:00;;;;;;;;;;;17.50;99.90;;;;;;5063474;28;19952;-68
2023/07/01 02:33:26;;;;;;;;;;;17.50;99.90;;;;;;5063450;28;19957;-69
2023/07/01 02:35:53;;;;;;;;;;;17.50;99.90;;;;;;5062692;28;19952;-69
2023/07/01 02:38:21;;;;;;;;;;;17.50;99.90;;;;;;5063662;28;19979;-69
2023/07/01 02:40:47;;;;;;;;;;;17.40;99.90;;;;;;5063267;28;19927;-68
2023/07/01 02:43:14;;;;;;;;;;;17.40;99.90;;;;;;5063427;28;19983;-68
2023/07/01 02:45:41;;;;;;;;;;;17.40;99.90;;;;;;5061760;28;20188;-68
2023/07/01 02:48:07;;;;;;;;;;;17.40;99.90;;;;;;5063356;28;19928;-67
2023/07/01 02:50:34;;;;;;;;;;;17.30;99.90;;;;;;5063655;28;20173;-68
2023/07/01 02:53:01;;;;;;;;;;;17.30;99.90;;;;;;5063565;28;19956;-68
2023/07/01 02:55:29;;;;;;;;;;;17.30;99.90;;;;;;5062773;28;19920;-69
2023/07/01 02:57:56;;;;;;;;;;;17.30;99.90;;;;;;5063357;28;20205;-68
2023/07/01 03:00:23;;;;;;;;;;;17.30;99.90;;;;;;5060464;28;19928;-68
2023/07/01 03:02:50;;;;;;;;;;;17.20;99.90;;;;;;5063410;28;19920;-68
2023/07/01 03:05:19;;;;;;;;;;;17.20;99.90;;;;;;5062693;28;19929;-68
2023/07/01 03:07:45;;;;;;;;;;;17.20;99.90;;;;;;5062964;28;19921;-68
2023/07/01 03:10:12;;;;;;;;;;;17.20;99.90;;;;;;5063268;28;19963;-67
2023/07/01 03:12:40;;;;;;;;;;;17.10;99.90;;;;;;5063356;28;19944;-68
2023/07/01 03:15:08;;;;;;;;;;;17.10;99.90;;;;;;5049615;28;19929;-68
2023/07/01 03:17:35;;;;;;;;;;;17.10;99.90;;;;;;5043010;28;19921;-68
2023/07/01 03:20:02;;;;;;;;;;;17.10;99.90;;;;;;5043280;28;19959;-68
2023/07/01 03:22:29;;;;;;;;;;;17.00;99.90;;;;;;5043204;28;19928;-68
2023/07/01 03:24:56;;;;;;;;;;;17.00;99.90;;;;;;5043120;28;20165;-69
2023/07/01 03:27:22;;;;;;;;;;;17.00;99.90;;;;;;5042461;28;19921;-69
2023/07/01 03:29:50;;;;;;;;;;;17.00;99.90;;;;;;5042929;28;20000;-68
2023/07/01 03:32:17;;;;;;;;;;;17.00;99.90;;;;;;5043128;28;19921;-68
2023/07/01 03:34:43;;;;;;;;;;;16.90;99.90;;;;;;5043032;28;19921;-69
2023/07/01 03:37:10;;;;;;;;;;;16.90;99.90;;;;;;5042088;28;19984;-70
2023/07/01 03:39:37;;;;;;;;;;;16.90;99.90;;;;;;5043130;28;19964;-68
2023/07/01 03:42:03;;;;;;;;;;;16.80;99.90;;;;;;5051633;28;19921;-68
2023/07/01 03:44:30;;;;;;;;;;;16.80;99.90;;;;;;5063081;28;19921;-69
2023/07/01 03:46:58;;;;;;;;;;;16.70;99.90;;;;;;5061693;28;19921;-68
2023/07/01 03:49:25;;;;;;;;;;;16.70;99.90;;;;;;5062906;28;20119;-68
2023/07/01 03:51:52;;;;;;;;;;;16.70;99.90;;;;;;5062468;28;19968;-68
2023/07/01 03:54:19;;;;;;;;;;;16.60;99.90;;;;;;5063026;28;19921;-68
2023/07/01 03:56:45;;;;;;;;;;;16.60;99.90;;;;;;5061890;28;19987;-68
2023/07/01 03:59:12;;;;;;;;;;;16.60;99.90;;;;;;5066524;28;19992;-68
2023/07/01 04:01:39;;;;;;;;;;;16.60;99.90;;;;;;5061321;28;19983;-69
2023/07/01 04:04:07;;;;;;;;;;;16.60;99.90;;;;;;5066529;28;19921;-67
2023/07/01 04:06:33;;;;;;;;;;;16.60;99.90;;;;;;5065368;28;20007;-72
2023/07/01 04:09:00;;;;;;;;;;;16.50;99.90;;;;;;5066339;28;20177;-68
2023/07/01 04:11:27;;;;;;;;;;;16.50;99.90;;;;;;5062224;28;19921;-68
2023/07/01 04:13:53;;;;;;;;;;;16.50;99.90;;;;;;5066466;28;19921;-69
2023/07/01 04:16:20;;;;;;;;;;;16.50;99.90;;;;;;5065367;28;20149;-68
2023/07/01 04:18:47;;;;;;;;;;;16.50;99.90;;;;;;5066183;28;19952;-68
2023/07/01 04:21:15;;;;;;;;;;;16.50;99.90;;;;;;5066308;28;19963;-68
2023/07/01 04:23:41;;;;;;;;;;;16.50;99.90;;;;;;5066113;28;19920;-69
2023/07/01 04:26:08;;;;;;;;;;;16.50;99.90;;;;;;5065108;28;19984;-68
2023/07/01 04:28:35;;;;;;;;;;;16.50;99.90;;;;;;5065975;28;19987;-68
2023/07/01 04:31:01;;;;;;;;;;;16.60;99.90;;;;;;5066045;28;19928;-68
2023/07/01 04:33:28;;;;;;;;;;;16.60;99.90;;;;;;5065588;28;19921;-68
2023/07/01 04:35:56;;;;;;;;;;;16.70;99.90;;;;;;5063082;28;19996;-68
2023/07/01 04:38:24;;;;;;;;;;;16.70;99.90;;;;;;5065841;28;19993;-68
2023/07/01 04:40:51;;;;;;;;;;;16.70;99.90;;;;;;5065709;28;19987;-69
2023/07/01 04:43:18;;;;;;;;;;;16.70;99.90;;;;;;5065635;28;19920;-69
2023/07/01 04:45:44;;;;;;;;;;;16.80;99.90;;;;;;5062361;28;19921;-69
2023/07/01 04:48:11;;;;;;;;;;;16.80;99.90;;;;;;5065558;28;19955;-68
2023/07/01 04:50:38;;;;;;;;;;;16.90;99.90;;;;;;5065541;28;19927;-68
2023/07/01 04:53:04;;;;;;;;;;;16.90;99.90;;;;;;5065199;28;19992;-70
2023/07/01 04:55:32;;;;;;;;;;;16.90;99.90;;;;;;5064748;28;19993;-69
2023/07/01 04:57:59;;;;;;;;;;;17.00;99.90;;;;;;5065462;28;19921;-69
2023/07/01 05:00:26;;;;;;;;;;;17.00;99.90;;;;;;5057058;28;19967;-66
2023/07/01 05:02:52;;;;;;;;;;;17.00;99.90;;;;;;5049146;28;19948;-67
2023/07/01 05:05:19;;;;;;;;;;;17.00;99.90;;;;;;5062421;28;19952;-66
2023/07/01 05:07:46;;;;;;;;;;;17.00;99.90;;;;;;5064401;28;19924;-67
2023/07/01 05:10:12;;;;;;;;;;;17.10;99.90;;;;;;5064257;28;19949;-66
2023/07/01 05:12:40;;;;;;;;;;;17.20;99.90;;;;;;5064822;28;20308;-66
2023/07/01 05:15:07;;;;;;;;;;;17.30;99.90;;;;;;5064270;28;19959;-66
2023/07/01 05:17:34;;;;;;;;;;;17.30;99.90;;;;;;5050561;28;20165;-66
2023/07/01 05:20:01;;;;;;;;;;;17.30;99.90;;;;;;5044935;28;19987;-67
2023/07/01 05:22:27;;;;;;;;;;;17.30;99.90;;;;;;5059079;28;19920;-68
2023/07/01 05:24:54;;;;;;;;;;;17.30;99.90;;;;;;5064187;28;19921;-67
2023/07/01 05:27:20;;;;;;;;;;;17.30;99.90;;;;;;5061241;28;19920;-68
2023/07/01 05:29:48;;;;;;;;;;;17.30;99.90;;;;;;5082658;28;19984;-67
2023/07/01 05:32:15;;;;;;;;;;;17.30;99.90;;;;;;5084604;28;19942;-65
2023/07/01 05:34:42;;;;;;;;;;;17.30;99.90;;;;;;5055280;28;19952;-65
2023/07/01 05:37:08;;;;;;;;;;;17.30;99.90;;;;;;5045164;28;19928;-66
2023/07/01 05:39:35;;;;;;;;;;;17.30;99.90;;;;;;5044460;28;19959;-66
2023/07/01 05:42:02;;;;;;;;;;;17.40;99.90;;;;;;5044441;28;20256;-67
2023/07/01 05:44:28;;;;;;;;;;;17.50;99.90;;;;;;5044001;28;19993;-67
2023/07/01 05:46:56;;;;;;;;;;;17.60;99.90;;;;;;5043013;28;19957;-70
2023/07/01 05:49:23;;;;;;;;;;;17.70;99.90;;;;;;5061093;28;19927;-69
2023/07/01 05:51:49;;;;;;;;;;;17.80;99.90;;;;;;5064341;28;19956;-66
2023/07/01 05:54:16;;;;;;;;;;;17.80;99.90;;;;;;5064385;28;19921;-67
2023/07/01 05:56:43;;;;;;;;;;;17.90;99.90;;;;;;5063139;28;19921;-66
2023/07/01 05:59:09;;;;;;;;;;;18.00;99.90;;;;;;5063911;28;19988;-67
2023/07/01 06:01:36;;;;;;;;;;;18.00;99.90;;;;;;5050212;28;19921;-67
2023/07/01 06:04:05;;;;;;;;;;;18.10;99.90;;;;;;5052058;28;19953;-66
2023/07/01 06:06:31;;;;;;;;;;;18.10;99.90;;;;;;5042709;28;19968;-67
2023/07/01 06:08:58;;;;;;;;;;;18.10;99.90;;;;;;5059465;28;20164;-67
2023/07/01 06:11:25;;;;;;;;;;;18.10;99.90;;;;;;5063983;28;19921;-66
2023/07/01 06:13:51;;;;;;;;;;;18.20;99.90;;;;;;5063765;28;20004;-67
2023/07/01 06:16:18;;;;;;;;;;;18.20;99.90;;;;;;5062715;28;19959;-67
2023/07/01 06:18:45;;;;;;;;;;;18.10;99.90;;;;;;5063750;28;19920;-67
2023/07/01 06:21:12;;;;;;;;;;;18.10;99.90;;;;;;5062437;28;19987;-67
2023/07/01 06:23:39;;;;;;;;;;;18.10;99.90;;;;;;5063339;28;19927;-66
2023/07/01 06:26:07;;;;;;;;;;;18.10;99.90;;;;;;5059691;28;19987;-67
2023/07/01 06:28:33;;;;;;;;;;;18.10;99.90;;;;;;5063307;28;19920;-67
2023/07/01 06:31:00;;;;;;;;;;;18.20;99.90;;;;;;5063388;28;19920;-67
2023/07/01 06:33:27;;;;;;;;;;;18.30;99.90;;;;;;5063459;28;19948;-67
2023/07/01 06:35:53;;;;;;;;;;;18.30;99.90;;;;;;5062317;28;19991;-66
2023/07/01 06:38:21;;;;;;;;;;;18.40;99.90;;;;;;5063376;28;19959;-66
2023/07/01 06:40:48;;;;;;;;;;;18.40;99.90;;;;;;5062964;28;19987;-66
2023/07/01 06:43:15;;;;;;;;;;;18.50;99.90;;;;;;5063418;28;19927;-66
2023/07/01 06:45:43;;;;;;;;;;;18.60;99.90;;;;;;5062224;28;19952;-66
2023/07/01 06:48:09;;;;;;;;;;;18.60;99.90;;;;;;5063370;28;19921;-67
2023/07/01 06:50:36;;;;;;;;;;;18.70;99.90;;;;;;5063448;28;19987;-66
2023/07/01 06:53:03;;;;;;;;;;;18.70;99.90;;;;;;5063258;28;19987;-67
2023/07/01 06:55:31;;;;;;;;;;;18.70;99.90;;;;;;5062444;28;19936;-67
2023/07/01 06:57:58;;;;;;;;;;;18.70;99.90;;;;;;5062727;28;20001;-67
2023/07/01 07:00:25;;;;;;;;;;;18.70;99.90;;;;;;5048627;28;19988;-67
2023/07/01 07:02:51;;;;;;;;;;;18.70;99.90;;;;;;5043199;28;19925;-67
2023/07/01 07:05:18;;;;;;;;;;;18.70;99.90;;;;;;5042321;28;19949;-67
2023/07/01 07:07:45;;;;;;;;;;;18.80;99.90;;;;;;5048100;28;19991;-67
2023/07/01 07:10:11;;;;;;;;;;;18.90;99.90;;;;;;5062825;28;19999;-67
2023/07/01 07:12:39;;;;;;;;;;;18.90;99.90;;;;;;5063135;28;19987;-67
2023/07/01 07:15:07;;;;;;;;;;;19.00;99.90;;;;;;5062395;28;19968;-67
2023/07/01 07:17:33;;;;;;;;;;;19.00;99.90;;;;;;5062576;28;19920;-67
2023/07/01 07:20:00;;;;;;;;;;;19.10;99.90;;;;;;5062732;28;20208;-67
2023/07/01 07:22:27;;;;;;;;;;;19.20;99.90;;;;;;5062980;28;19987;-66
2023/07/01 07:24:53;;;;;;;;;;;19.20;99.90;;;;;;5062731;28;19988;-67
2023/07/01 07:27:21;;;;;;;;;;;19.30;99.90;;;;;;5059203;28;20271;-67
2023/07/01 07:29:49;;;;;;;;;;;19.40;99.90;;;;;;5062851;28;19927;-67
2023/07/01 07:32:16;;;;;;;;;;;19.50;99.90;;;;;;5063493;28;19943;-67
2023/07/01 07:34:43;;;;;;;;;;;19.60;99.90;;;;;;5066566;28;19934;-66
2023/07/01 07:37:09;;;;;;;;;;;19.60;99.90;;;;;;5065842;28;19992;-66
2023/07/01 07:39:36;;;;;;;;;;;19.70;99.90;;;;;;5066479;28;19927;-67
2023/07/01 07:42:02;;;;;;;;;;;19.80;99.90;;;;;;5066614;28;19951;-67
2023/07/01 07:44:29;;;;;;;;;;;19.80;99.90;;;;;;5066549;28;19996;-67
2023/07/01 07:46:57;;;;;;;;;;;19.90;99.90;;;;;;5065232;28;19956;-67
2023/07/01 07:49:24;;;;;;;;;;;20.00;99.90;;;;;;5066522;28;19920;-68
2023/07/01 07:51:50;;;;;;;;;;;20.00;99.90;;;;;;5066498;28;19928;-66
2023/07/01 07:54:18;;;;;;;;;;;20.00;99.90;;;;;;5067438;28;20288;-67
2023/07/01 07:56:45;;;;;;;;;;;20.00;99.90;;;;;;5066287;28;19921;-67
2023/07/01 07:59:11;;;;;;;;;;;20.10;99.90;;;;;;5066187;28;19927;-66
2023/07/01 08:01:38;;;;;;;;;;;20.10;99.90;;;;;;5066287;28;19920;-67
2023/07/01 08:04:06;;;;;;;;;;;20.10;99.90;;;;;;5066146;28;20000;-67
2023/07/01 08:06:34;;;;;;;;;;;20.20;99.90;;;;;;5065321;28;19920;-67
2023/07/01 08:09:01;;;;;;;;;;;20.30;99.90;;;;;;5065720;28;19964;-67
2023/07/01 08:11:27;;;;;;;;;;;20.30;99.90;;;;;;5065798;28;19987;-66
2023/07/01 08:13:54;;;;;;;;;;;20.40;99.90;;;;;;5065898;28;19920;-67
2023/07/01 08:16:20;;;;;;;;;;;20.50;99.90;;;;;;5064718;28;20340;-67
2023/07/01 08:18:47;;;;;;;;;;;20.60;99.90;;;;;;5065434;28;19984;-67
2023/07/01 08:21:15;;;;;;;;;;;20.50;99.90;;;;;;5065893;28;19956;-66
2023/07/01 08:23:42;;;;;;;;;;;20.50;99.90;;;;;;5065570;28;19920;-66
2023/07/01 08:26:08;;;;;;;;;;;20.50;99.90;;;;;;5061765;28;19972;-66
2023/07/01 08:28:35;;;;;;;;;;;20.50;99.90;;;;;;5065676;28;19927;-66
2023/07/01 08:31:04;;;;;;;;;;;20.50;99.90;;;;;;5065685;28;19983;-66
2023/07/01 08:33:31;;;;;;;;;;;20.60;99.90;;;;;;5065406;28;20216;-66
2023/07/01 08:35:58;;;;;;;;;;;20.60;99.90;;;;;;5064830;28;19921;-67
2023/07/01 08:38:26;;;;;;;;;;;20.70;99.90;;;;;;5065636;28;19921;-67
2023/07/01 08:40:53;;;;;;;;;;;20.80;99.90;;;;;;5065301;28;19983;-67
2023/07/01 08:43:21;;;;;;;;;;;20.90;99.90;;;;;;5065187;28;19956;-66
2023/07/01 08:45:49;;;;;;;;;;;21.00;99.90;;;;;;5064000;28;19921;-66
2023/07/01 08:48:16;;;;;;;;;;;21.00;99.90;;;;;;5064987;28;19921;-66
2023/07/01 08:50:46;;;;;;;;;;;21.00;99.90;;;;;;5064961;28;19963;-66
2023/07/01 08:53:13;;;;;;;;;;;21.10;99.90;;;;;;5065349;28;19920;-66
2023/07/01 08:55:41;;;;;;;;;;;21.10;99.90;;;;;;5064474;28;19991;-67
2023/07/01 08:58:08;;;;;;;;;;;21.20;99.90;;;;;;5065096;28;20109;-66
2023/07/01 09:00:35;;;;;;;;;;;21.30;99.90;;;;;;5064897;28;20093;-67
2023/07/01 09:03:02;;;;;;;;;;;21.30;99.90;;;;;;5056655;28;19935;-66
2023/07/01 09:05:29;;;;;;;;;;;21.30;99.90;;;;;;5054909;28;19991;-66
2023/07/01 09:07:56;;;;;;;;;;;21.40;99.90;;;;;;5051468;28;19987;-66
2023/07/01 09:10:22;;;;;;;;;;;21.40;99.90;;;;;;5064905;28;19987;-67
2023/07/01 09:12:50;;;;;;;;;;;21.40;99.90;;;;;;5064642;28;20259;-67
2023/07/01 09:15:17;;;;;;;;;;;21.40;99.90;;;;;;5064312;28;19929;-66
2023/07/01 09:17:44;;;;;;;;;;;21.30;99.90;;;;;;5064372;28;19958;-66
2023/07/01 09:20:12;;;;;;;;;;;21.40;99.90;;;;;;5064931;28;20141;-66
2023/07/01 09:22:39;;;;;;;;;;;21.50;99.90;;;;;;5064441;28;19951;-67
2023/07/01 09:25:06;;;;;;;;;;;21.50;99.90;;;;;;5064209;28;19995;-66
2023/07/01 09:27:42;;;;;;;;;;;21.60;99.90;;;;;;5061419;28;19920;-66
2023/07/01 09:30:25;;;;;;;;;;;21.60;99.90;;;;;;5064353;28;19979;-66
2023/07/01 09:32:51;;;;;;;;;;;21.70;99.90;;;;;;5064674;28;20132;-66
2023/07/01 09:35:18;;;;;;;;;;;21.90;99.90;;;;;;5063792;28;19921;-66
2023/07/01 09:37:45;;;;;;;;;;;22.00;99.90;;;;;;5064113;28;19927;-66
2023/07/01 09:40:18;;;;;;;;;;;22.20;99.90;;;;;;5058525;28;19983;-65
2023/07/01 09:42:50;;;;;;;;;;;22.30;99.90;;;;;;5062756;28;20115;-66
2023/07/01 09:45:16;;;;;;;;;;;22.40;99.90;;;;;;5040587;28;20128;-65
2023/07/01 09:47:45;;;;;;;;;;;22.30;99.90;;;;;;5043972;28;19964;-66
2023/07/01 09:50:20;;;;;;;;;;;22.20;99.90;;;;;;5044017;28;20232;-66
2023/07/01 09:52:48;;;;;;;;;;;22.10;99.90;;;;;;5044050;28;20165;-66
2023/07/01 09:55:15;;;;;;;;;;;22.10;99.90;;;;;;5043222;28;20223;-65
2023/07/01 09:57:42;;;;;;;;;;;22.00;99.90;;;;;;5043781;28;19921;-65
2023/07/01 10:00:12;;;;;;;;;;;22.00;99.90;;;;;;5044186;28;19956;-66
2023/07/01 10:02:39;;;;;;;;;;;21.90;99.90;;;;;;5043854;28;19984;-65
2023/07/01 10:05:07;;;;;;;;;;;22.00;99.90;;;;;;5043590;28;20003;-66
2023/07/01 10:07:34;;;;;;;;;;;22.00;99.90;;;;;;5046998;28;19927;-66
2023/07/01 10:10:01;;;;;;;;;;;21.90;99.90;;;;;;5063902;28;19921;-66
2023/07/01 10:12:28;;;;;;;;;;;21.90;99.90;;;;;;5063555;28;19955;-66
2023/07/01 10:14:55;;;;;;;;;;;22.00;99.90;;;;;;5063665;28;19988;-66
2023/07/01 10:17:22;;;;;;;;;;;22.20;99.90;;;;;;5063113;28;20017;-66
2023/07/01 10:19:49;;;;;;;;;;;22.40;99.90;;;;;;5063778;28;19991;-66
2023/07/01 10:22:22;;;;;;;;;;;22.50;99.90;;;;;;5063443;28;19928;-67
2023/07/01 10:24:56;;;;;;;;;;;22.60;99.90;;;;;;5060592;28;19959;-66
2023/07/01 10:27:41;;;;;;;;;;;22.70;99.90;;;;;;5060305;28;19935;-66
2023/07/01 10:30:08;;;;;;;;;;;22.70;99.90;;;;;;5063415;28;19958;-66
2023/07/01 10:32:35;;;;;;;;;;;22.70;99.90;;;;;;5063221;28;19920;-66
2023/07/01 10:35:13;;;;;;;;;;;22.90;99.90;;;;;;5060424;28;19927;-66
2023/07/01 10:37:41;;;;;;;;;;;22.90;99.90;;;;;;5042954;28;19928;-66
2023/07/01 10:40:27;;;;;;;;;;;22.90;99.90;;;;;;5043443;28;19927;-66
2023/07/01 10:42:55;;;;;;;;;;;23.00;99.90;;;;;;5043145;28;19992;-66
2023/07/01 10:45:40;;;;;;;;;;;23.10;99.90;;;;;;5059634;28;19984;-66
2023/07/01 10:48:13;;;;;;;;;;;23.10;99.90;;;;;;5043147;28;20003;-66
2023/07/01 10:50:54;;;;;;;;;;;23.20;99.90;;;;;;5050407;28;20140;-66
2023/07/01 10:53:49;;;;;;;;;;;23.40;99.90;;;;;;5040796;28;20172;-66
2023/07/01 10:56:18;;;;;;;;;;;23.60;99.90;;;;;;5041967;28;20153;-66
2023/07/01 10:58:44;;;;;;;;;;;23.80;99.90;;;;;;5051594;28;19921;-66
2023/07/01 11:01:37;;;;;;;;;;;23.80;99.90;;;;;;5061616;28;19928;-66
2023/07/01 11:04:04;;;;;;;;;;;23.80;99.90;;;;;;5062864;28;20255;-66
2023/07/01 11:06:44;;;;;;;;;;;23.80;99.90;;;;;;5062292;28;20179;-66
2023/07/01 11:09:11;;;;;;;;;;;23.90;99.90;;;;;;5066673;28;19921;-66
2023/07/01 11:11:39;;;;;;;;;;;24.00;99.90;;;;;;5065884;28;19920;-66
2023/07/01 11:14:08;;;;;;;;;;;24.20;99.90;;;;;;5065869;28;19921;-66
2023/07/01 11:16:35;;;;;;;;;;;24.30;99.90;;;;;;5066084;28;20224;-66
2023/07/01 11:19:02;;;;;;;;;;;24.40;99.90;;;;;;5066485;28;19921;-67
2023/07/01 11:21:30;;;;;;;;;;;24.50;99.90;;;;;;5067043;28;19921;-66
2023/07/01 11:23:58;;;;;;;;;;;24.70;99.90;;;;;;5067027;28;20362;-66
2023/07/01 11:26:26;;;;;;;;;;;24.50;99.90;;;;;;5065988;28;20239;-66
2023/07/01 11:28:54;;;;;;;;;;;24.50;99.90;;;;;;5063189;28;19958;-67
2023/07/01 11:31:21;;;;;;;;;;;24.40;99.90;;;;;;5066196;28;19955;-66
2023/07/01 11:33:49;;;;;;;;;;;24.30;99.90;;;;;;5066613;28;19963;-66
2023/07/01 11:36:16;;;;;;;;;;;24.40;99.90;;;;;;5065657;28;19921;-65
2023/07/01 11:38:43;;;;;;;;;;;24.30;99.90;;;;;;5066789;28;19943;-66
2023/07/01 11:41:13;;;;;;;;;;;24.50;99.90;;;;;;5066579;28;19921;-65
2023/07/01 11:43:39;;;;;;;;;;;24.60;99.90;;;;;;5058507;28;20223;-66
2023/07/01 11:46:07;;;;;;;;;;;24.70;99.90;;;;;;5057008;28;19980;-68
2023/07/01 11:48:34;;;;;;;;;;;24.90;99.90;;;;;;5065780;28;19971;-68
2023/07/01 11:51:01;;;;;;;;;;;24.90;99.90;;;;;;5058216;28;19963;-68
2023/07/01 11:53:27;;;;;;;;;;;24.90;99.90;;;;;;5046366;28;19921;-69
2023/07/01 11:55:56;;;;;;;;;;;25.00;99.90;;;;;;5045577;28;19927;-68
2023/07/01 11:58:26;;;;;;;;;;;25.10;99.90;;;;;;5046464;28;19921;-68
2023/07/01 12:00:54;;;;;;;;;;;25.20;99.90;;;;;;5064137;28;19927;-68
2023/07/01 12:03:22;;;;;;;;;;;25.20;99.90;;;;;;5066165;28;19921;-68
2023/07/01 12:05:49;;;;;;;;;;;25.30;99.90;;;;;;5062022;28;19979;-68
2023/07/01 12:08:15;;;;;;;;;;;25.30;99.90;;;;;;5065894;28;19928;-68
2023/07/01 12:10:42;;;;;;;;;;;25.30;99.90;;;;;;5060782;28;20175;-68
2023/07/01 12:13:09;;;;;;;;;;;25.30;99.60;;;;;;5060397;28;19921;-68
2023/07/01 12:15:50;;;;;;;;;;;25.40;99.00;;;;;;5056037;28;20128;-68
2023/07/01 12:18:22;;;;;;;;;;;25.40;99.10;;;;;;5046317;28;19996;-69
2023/07/01 12:20:48;;;;;;;;;;;25.20;98.80;;;;;;5050518;28;19987;-69
2023/07/01 12:23:17;;;;;;;;;;;25.30;99.30;;;;;;5052100;28;19920;-69
2023/07/01 12:25:44;;;;;;;;;;;25.40;99.00;;;;;;5065045;28;19921;-68
2023/07/01 12:28:10;;;;;;;;;;;25.40;99.10;;;;;;5063943;28;19920;-69
2023/07/01 12:30:37;;;;;;;;;;;25.50;98.70;;;;;;5065277;28;19927;-68
2023/07/01 12:33:04;;;;;;;;;;;25.40;98.40;;;;;;5065508;28;20000;-68
2023/07/01 12:35:32;;;;;;;;;;;25.40;98.90;;;;;;5064678;28;19920;-68
2023/07/01 12:37:59;;;;;;;;;;;25.40;98.60;;;;;;5065318;28;20394;-68
2023/07/01 12:40:27;;;;;;;;;;;25.50;98.30;;;;;;5065430;28;19948;-68
2023/07/01 12:42:53;;;;;;;;;;;25.60;98.50;;;;;;5065375;28;19927;-69
2023/07/01 12:45:20;;;;;;;;;;;25.80;98.80;;;;;;5056353;28;19924;-68
2023/07/01 12:47:47;;;;;;;;;;;25.90;98.10;;;;;;5044884;28;20208;-69
2023/07/01 12:50:13;;;;;;;;;;;26.00;98.70;;;;;;5042189;28;19921;-66
2023/07/01 12:52:41;;;;;;;;;;;26.00;96.50;;;;;;5045560;28;19960;-66
2023/07/01 12:55:08;;;;;;;;;;;25.90;96.60;;;;;;5050941;28;20119;-66
2023/07/01 12:57:36;;;;;;;;;;;25.90;96.60;;;;;;5065144;28;19921;-66
2023/07/01 13:00:03;;;;;;;;;;;25.80;96.80;;;;;;5065220;28;20147;-66
2023/07/01 13:02:31;;;;;;;;;;;25.70;96.90;;;;;;5063595;28;19952;-66
2023/07/01 13:04:59;;;;;;;;;;;25.70;96.60;;;;;;5064633;28;19959;-66
2023/07/01 13:07:26;;;;;;;;;;;25.70;95.60;;;;;;5064405;28;19929;-65
2023/07/01 13:09:55;;;;;;;;;;;25.70;95.70;;;;;;5064665;28;19920;-66
2023/07/01 13:12:24;;;;;;;;;;;25.70;95.50;;;;;;5058313;28;19928;-67
2023/07/01 13:14:51;;;;;;;;;;;25.90;96.20;;;;;;5064551;28;19920;-66
2023/07/01 13:17:18;;;;;;;;;;;26.10;95.10;;;;;;5064364;28;19928;-66
2023/07/01 13:19:45;;;;;;;;;;;26.20;95.20;;;;;;5050578;28;19924;-66
2023/07/01 13:22:13;;;;;;;;;;;26.20;94.80;;;;;;5064635;28;19972;-66
2023/07/01 13:24:43;;;;;;;;;;;26.30;95.30;;;;;;5064440;28;19921;-66
2023/07/01 13:27:14;;;;;;;;;;;26.50;94.80;;;;;;5064073;28;19992;-66
2023/07/01 13:29:41;;;;;;;;;;;26.50;94.50;;;;;;5061567;28;19927;-66
2023/07/01 13:32:08;;;;;;;;;;;26.50;94.00;;;;;;5064232;28;20212;-66
2023/07/01 13:34:38;;;;;;;;;;;26.40;94.00;;;;;;5064554;28;19984;-66
2023/07/01 13:37:06;;;;;;;;;;;26.20;93.90;;;;;;5063070;28;19987;-66
2023/07/01 13:39:41;;;;;;;;;;;26.10;94.20;;;;;;5062896;28;20324;-66
2023/07/01 13:42:08;;;;;;;;;;;25.90;93.60;;;;;;5063400;28;19928;-67
2023/07/01 13:44:38;;;;;;;;;;;26.00;94.90;;;;;;5064064;28;20213;-67
2023/07/01 13:47:06;;;;;;;;;;;26.20;94.50;;;;;;5063179;28;19925;-67
2023/07/01 13:49:33;;;;;;;;;;;26.30;95.10;;;;;;5064280;28;19963;-66
2023/07/01 13:52:01;;;;;;;;;;;26.50;93.70;;;;;;5055934;28;19956;-69
2023/07/01 13:54:28;;;;;;;;;;;26.50;93.80;;;;;;5046962;28;19920;-69
2023/07/01 13:56:56;;;;;;;;;;;26.50;94.00;;;;;;5063215;28;19920;-70
2023/07/01 13:59:23;;;;;;;;;;;26.20;94.00;;;;;;5055552;28;19992;-69
2023/07/01 14:01:56;;;;;;;;;;;26.00;94.40;;;;;;5043985;28;20267;-68
2023/07/01 14:04:23;;;;;;;;;;;25.90;94.60;;;;;;5043960;28;19921;-68
2023/07/01 14:06:50;;;;;;;;;;;25.80;95.20;;;;;;5042951;28;19992;-68
2023/07/01 14:09:20;;;;;;;;;;;25.70;95.40;;;;;;5062056;28;19921;-68
2023/07/01 14:11:47;;;;;;;;;;;25.70;95.40;;;;;;5063957;28;19980;-69
2023/07/01 14:14:19;;;;;;;;;;;25.50;95.30;;;;;;5063903;28;19927;-68
2023/07/01 14:16:46;;;;;;;;;;;25.30;95.40;;;;;;5063080;28;19988;-67
2023/07/01 14:19:15;;;;;;;;;;;25.20;96.30;;;;;;5063441;28;20255;-68